Time;durP1;ratioP1;P1;durP2;ratioP2;P2;SDS_P1;SDS_P2;PMS_P1;PMS_P2;Temp;Humidity;BMP_temperature;BMP_pressure;BME280_temperature;BME280_humidity;BME280_pressure;Samples;Min_cycle;Max_cycle;Signal;HPM_P1;HPM_P2
2022/02/21 00:03:23;;;;;;;3.55;1.57;;;;;;;6.76;100.00;98556.37;5009206;56;1136726;-68
2022/02/21 00:08:29;;;;;;;1.77;1.42;;;;;;;6.77;100.00;98542.75;5059575;56;1136656;-70
2022/02/21 00:13:34;;;;;;;6.05;2.10;;;;;;;6.80;100.00;98530.65;5056241;56;1136699;-71
2022/02/21 00:18:40;;;;;;;2.47;1.63;;;;;;;6.78;100.00;98483.50;4985280;56;1136666;-71
2022/02/21 00:23:47;;;;;;;1.33;1.23;;;;;;;6.78;100.00;98483.50;4975369;56;1136697;-70
2022/02/21 00:28:53;;;;;;;2.03;1.07;;;;;;;6.84;100.00;98482.10;4975285;56;1136533;-70
2022/02/21 00:33:59;;;;;;;1.27;1.20;;;;;;;6.84;100.00;98463.71;4982390;56;1136794;-69
2022/02/21 00:39:05;;;;;;;3.00;1.10;;;;;;;6.85;100.00;98460.94;4982947;56;1136635;-68
2022/02/21 00:44:10;;;;;;;1.10;1.00;;;;;;;6.86;100.00;98449.94;4982708;55;1136899;-68
2022/02/21 00:49:16;;;;;;;1.15;0.93;;;;;;;6.87;100.00;98430.09;5047350;56;1136794;-71
2022/02/21 00:54:22;;;;;;;2.30;1.40;;;;;;;6.86;100.00;98436.81;5064817;56;1137015;-69
2022/02/21 00:59:28;;;;;;;1.20;1.10;;;;;;;6.86;100.00;98421.88;5054572;56;1136829;-70
2022/02/21 01:04:36;;;;;;;0.93;0.93;;;;;;;6.86;100.00;98395.59;5106145;56;1136995;-69
2022/02/21 01:09:41;;;;;;;1.03;0.90;;;;;;;6.88;100.00;98377.85;5139027;56;1136888;-69
2022/02/21 01:14:47;;;;;;;0.90;0.90;;;;;;;6.89;100.00;98372.11;5149727;56;1136734;-70
2022/02/21 01:19:54;;;;;;;0.98;0.90;;;;;;;6.90;100.00;98359.31;5148940;56;1136971;-69
2022/02/21 01:24:59;;;;;;;1.63;0.90;;;;;;;6.89;100.00;98347.98;5148325;56;1136836;-70
2022/02/21 01:30:10;;;;;;;1.60;1.13;;;;;;;6.91;100.00;98326.81;5141977;56;1136996;-69
2022/02/21 01:35:17;;;;;;;1.43;0.83;;;;;;;6.92;100.00;98318.78;5140811;56;1137519;-69
2022/02/21 01:40:23;;;;;;;0.87;0.80;;;;;;;6.93;100.00;98303.84;5149419;56;1136890;-68
2022/02/21 01:45:28;;;;;;;2.00;0.90;;;;;;;6.93;100.00;98284.13;5147603;56;1137195;-69
2022/02/21 01:50:35;;;;;;;4.17;1.40;;;;;;;6.93;100.00;98275.77;5139238;56;1137163;-68
2022/02/21 01:55:41;;;;;;;3.30;0.60;;;;;;;6.96;100.00;98252.30;5144393;56;1136977;-71
2022/02/21 02:00:47;;;;;;;2.23;1.00;;;;;;;6.95;100.00;98221.27;5138865;56;1137033;-67
2022/02/21 02:05:53;;;;;;;3.13;0.73;;;;;;;6.94;100.00;98222.23;5064607;56;1136943;-70
2022/02/21 02:10:58;;;;;;;1.13;0.80;;;;;;;6.99;100.00;98200.77;5052269;57;1136952;-69
2022/02/21 02:16:05;;;;;;;0.97;0.70;;;;;;;7.03;100.00;98177.13;5020860;57;1136979;-71
2022/02/21 02:21:15;;;;;;;2.20;0.73;;;;;;;7.03;100.00;98160.86;4963315;57;1136967;-69
2022/02/21 02:26:23;;;;;;;1.23;1.10;;;;;;;7.04;100.00;98148.55;4962191;57;1137137;-69
2022/02/21 02:31:29;;;;;;;3.83;0.93;;;;;;;7.05;100.00;98145.77;4963790;56;1136800;-70
2022/02/21 02:36:35;;;;;;;2.98;1.15;;;;;;;7.08;100.00;98123.61;4961920;57;1137409;-69
2022/02/21 02:41:42;;;;;;;0.60;0.60;;;;;;;7.11;100.00;98115.91;4961109;57;1136999;-69
2022/02/21 02:46:49;;;;;;;2.13;1.00;;;;;;;7.08;100.00;98098.64;4964376;57;1137040;-69
2022/02/21 02:51:54;;;;;;;0.60;0.60;;;;;;;7.18;100.00;98081.47;4971012;57;1136656;-70
2022/02/21 02:57:01;;;;;;;0.33;0.33;;;;;;;7.18;100.00;98064.37;4963774;57;1137172;-69
2022/02/21 03:02:09;;;;;;;1.53;0.60;;;;;;;7.16;100.00;98038.73;4974836;56;1136662;-70
2022/02/21 03:07:14;;;;;;;1.23;0.30;;;;;;;7.16;100.00;98061.91;5105145;56;1136902;-70
2022/02/21 03:12:20;;;;;;;0.70;0.70;;;;;;;7.16;100.00;98019.85;5097391;56;1180667;-70
2022/02/21 03:17:26;;;;;;;4.53;0.88;;;;;;;7.16;100.00;98022.48;5096384;56;1136783;-68
2022/02/21 03:22:33;;;;;;;0.60;0.60;;;;;;;7.18;100.00;98023.12;5098314;56;1137003;-68
2022/02/21 03:27:44;;;;;;;0.40;0.40;;;;;;;7.23;100.00;98004.25;5079682;56;1136900;-70
2022/02/21 03:32:51;;;;;;;1.17;0.50;;;;;;;7.20;100.00;97969.89;5049087;56;1136900;-69
2022/02/21 03:37:57;;;;;;;0.78;0.78;;;;;;;7.23;100.00;97984.05;5094652;55;1136738;-71
2022/02/21 03:43:03;;;;;;;0.77;0.50;;;;;;;7.26;100.00;97966.64;5117036;56;1136553;-72
2022/02/21 03:48:09;;;;;;;4.07;0.97;;;;;;;7.26;100.00;97952.18;5116805;56;1136770;-67
2022/02/21 03:53:15;;;;;;;3.40;0.63;;;;;;;7.29;100.00;97965.02;5116771;56;1136766;-69
2022/02/21 03:58:21;;;;;;;3.83;1.67;;;;;;;7.28;100.00;97942.33;5117007;56;1137076;-68
2022/02/21 04:03:26;;;;;;;1.93;0.87;;;;;;;7.38;100.00;97936.42;5103494;56;1136901;-71
2022/02/21 04:08:32;;;;;;;0.72;0.33;;;;;;;7.43;100.00;97932.00;5052553;57;1136921;-70
2022/02/21 04:13:38;;;;;;;6.50;2.15;;;;;;;7.49;100.00;97916.05;5052655;56;1136684;-68
2022/02/21 04:18:44;;;;;;;2.50;1.77;;;;;;;7.59;100.00;97899.14;5051938;57;1136731;-70
2022/02/21 04:23:49;;;;;;;4.33;0.60;;;;;;;7.59;100.00;97899.14;5044159;57;1136788;-68
2022/02/21 04:28:56;;;;;;;1.67;0.63;;;;;;;7.63;100.00;97887.31;5052543;57;1136731;-68
2022/02/21 04:34:02;;;;;;;2.33;1.10;;;;;;;7.68;100.00;97873.16;5047213;57;1136667;-70
2022/02/21 04:39:08;;;;;;;6.07;3.67;;;;;;;7.75;100.00;97870.70;5046038;57;1136815;-69
2022/02/21 04:44:15;;;;;;;4.70;1.00;;;;;;;7.77;100.00;97864.78;5046500;57;1136766;-68
2022/02/21 04:49:21;;;;;;;3.37;1.10;;;;;;;7.85;100.00;97858.17;5052453;57;1136759;-71
2022/02/21 04:54:26;;;;;;;7.47;3.23;;;;;;;7.92;100.00;97836.80;5052594;57;1140356;-69
2022/02/21 04:59:32;;;;;;;5.08;1.95;;;;;;;7.96;100.00;97844.66;5052478;57;1136628;-70
2022/02/21 05:04:38;;;;;;;10.47;2.13;;;;;;;8.00;100.00;97832.00;5032223;57;1136784;-68
2022/02/21 05:09:44;;;;;;;6.58;2.40;;;;;;;8.04;100.00;97838.58;5024721;56;1139009;-71
2022/02/21 05:14:50;;;;;;;4.43;2.03;;;;;;;8.12;100.00;97842.48;5107437;56;1136674;-70
2022/02/21 05:19:55;;;;;;;2.20;1.43;;;;;;;8.15;100.00;97830.31;5110106;56;1136844;-69
2022/02/21 05:25:02;;;;;;;2.90;1.15;;;;;;;8.14;100.00;97831.30;5109200;56;1136781;-70
2022/02/21 05:30:10;;;;;;;3.43;1.40;;;;;;;8.17;100.00;97837.55;5055584;57;1136752;-71
2022/02/21 05:35:15;;;;;;;1.50;1.30;;;;;;;8.20;100.00;97831.13;5129416;56;1136841;-70
2022/02/21 05:40:21;;;;;;;6.67;2.70;;;;;;;8.21;100.00;97846.76;5107541;56;1136727;-71
2022/02/21 05:45:27;;;;;;;8.53;4.87;;;;;;;8.21;100.00;97860.41;5071257;56;1136935;-69
2022/02/21 05:50:33;;;;;;;11.63;10.43;;;;;;;8.22;100.00;97842.31;5056299;56;1136831;-70
2022/02/21 05:55:39;;;;;;;27.60;5.85;;;;;;;8.27;100.00;97876.34;5055484;56;1141285;-69
2022/02/21 06:00:46;;;;;;;5.43;1.00;;;;;;;8.31;100.00;97877.66;5066786;56;1139156;-70
2022/02/21 06:05:51;;;;;;;5.33;2.93;;;;;;;8.28;100.00;97892.96;5141974;56;1136924;-69
2022/02/21 06:10:58;;;;;;;6.03;1.50;;;;;;;8.26;100.00;97894.44;5151237;56;1136944;-70
2022/02/21 06:16:05;;;;;;;3.27;0.67;;;;;;;8.20;100.00;97912.74;5139398;56;1136895;-68
2022/02/21 06:21:11;;;;;;;0.43;0.40;;;;;;;8.12;100.00;97913.07;5142071;55;1136905;-71
2022/02/21 06:26:17;;;;;;;1.47;0.90;;;;;;;8.08;100.00;97930.70;5141555;56;1136789;-70
2022/02/21 06:31:22;;;;;;;0.20;0.20;;;;;;;8.03;100.00;97906.68;5112909;56;1136880;-70
2022/02/21 06:36:28;;;;;;;0.20;0.20;;;;;;;7.93;100.00;97927.92;5072315;56;1136856;-69
2022/02/21 06:41:34;;;;;;;0.40;0.33;;;;;;;7.84;100.00;97934.16;5114716;56;1136713;-67
2022/02/21 06:46:39;;;;;;;0.30;0.30;;;;;;;7.78;100.00;97939.27;5115874;56;1136688;-69
2022/02/21 06:51:45;;;;;;;0.40;0.40;;;;;;;7.70;100.00;97953.23;5109275;56;1136968;-68
2022/02/21 06:56:51;;;;;;;0.37;0.37;;;;;;;7.62;100.00;97954.06;5118785;56;1136679;-69
2022/02/21 07:01:58;;;;;;;0.17;0.17;;;;;;;7.55;100.00;97986.42;5114257;56;1136862;-70
2022/02/21 07:07:05;;;;;;;0.23;0.23;;;;;;;7.48;100.00;98009.11;5039501;56;1136988;-70
2022/02/21 07:12:10;;;;;;;0.70;0.30;;;;;;;7.44;100.00;98048.53;5047124;56;1137057;-70
2022/02/21 07:17:16;;;;;;;3.20;0.40;;;;;;;7.38;100.00;98053.92;5090761;56;1137219;-69
2022/02/21 07:22:22;;;;;;;0.20;0.20;;;;;;;7.33;100.00;98043.88;5112891;56;1137060;-68
2022/02/21 07:27:29;;;;;;;0.63;0.60;;;;;;;7.28;100.00;98035.66;5098303;56;1144969;-70
2022/02/21 07:32:35;;;;;;;1.72;0.40;;;;;;;7.28;100.00;98044.86;5143836;56;1137225;-67
2022/02/21 07:37:41;;;;;;;1.25;0.50;;;;;;;7.30;100.00;98056.54;5149670;56;1136756;-69
2022/02/21 07:42:53;;;;;;;1.50;0.40;;;;;;;7.29;100.00;98065.41;5143170;56;1134833;-67
2022/02/21 07:48:03;;;;;;;1.22;0.62;;;;;;;7.30;100.00;98077.57;5139376;56;1137087;-69
2022/02/21 07:53:09;;;;;;;1.72;0.72;;;;;;;7.30;100.00;98086.28;5143532;55;1136933;-67
2022/02/21 07:58:15;;;;;;;1.23;0.47;;;;;;;7.26;100.00;98082.80;5140799;56;1134881;-68
2022/02/21 08:03:21;;;;;;;0.53;0.53;;;;;;;7.27;99.76;98098.42;5120057;56;1136891;-70
2022/02/21 08:08:27;;;;;;;0.75;0.57;;;;;;;7.23;98.08;98096.25;5087116;56;1132546;-69
2022/02/21 08:13:33;;;;;;;2.83;0.35;;;;;;;7.21;98.77;98109.55;5108006;55;1132527;-69
2022/02/21 08:18:39;;;;;;;0.95;0.53;;;;;;;7.01;100.00;98155.45;5137010;55;1132610;-68
2022/02/21 08:23:45;;;;;;;0.57;0.30;;;;;;;6.54;100.00;98183.33;5135809;56;1134787;-70
2022/02/21 08:28:51;;;;;;;0.43;0.40;;;;;;;6.29;100.00;98179.63;5133547;56;1134775;-67
2022/02/21 08:33:57;;;;;;;1.60;0.70;;;;;;;5.99;100.00;98183.42;5134254;56;1134787;-69
2022/02/21 08:39:03;;;;;;;1.17;0.67;;;;;;;5.83;100.00;98187.13;5142246;56;1134573;-68
2022/02/21 08:44:09;;;;;;;0.47;0.37;;;;;;;5.86;100.00;98210.45;5139629;56;1134515;-68
2022/02/21 08:49:15;;;;;;;0.57;0.57;;;;;;;5.87;100.00;98213.42;5132598;56;1134665;-69
2022/02/21 08:54:22;;;;;;;8.60;1.53;;;;;;;5.98;100.00;98209.31;5139606;56;1134821;-70
2022/02/21 08:59:28;;;;;;;1.42;1.12;;;;;;;5.98;100.00;98209.31;5142568;56;1134788;-70
2022/02/21 09:04:34;;;;;;;8.53;0.60;;;;;;;6.07;100.00;98219.91;5115822;56;1134551;-70
2022/02/21 09:09:40;;;;;;;0.88;0.55;;;;;;;6.28;100.00;98209.47;5132985;56;1134625;-69
2022/02/21 09:14:51;;;;;;;1.55;0.40;;;;;;;6.58;100.00;98255.56;5120852;56;1134635;-70
2022/02/21 09:19:53;;;;;;;0.40;0.30;;;;;;;6.07;100.00;98257.48;5135841;56;1134895;-66
2022/02/21 09:24:58;;;;;;;3.13;0.87;;;;;;;5.62;100.00;98262.13;5148776;56;1134882;-70
2022/02/21 09:30:10;;;;;;;4.43;1.23;;;;;;;5.29;100.00;98249.03;5125637;56;1134527;-69
2022/02/21 09:35:15;;;;;;;3.83;0.80;;;;;;;5.23;100.00;98245.65;5149619;56;1134591;-69
2022/02/21 09:40:21;;;;;;;4.55;2.37;;;;;;;5.16;100.00;98281.73;5149523;56;1134578;-67
2022/02/21 09:45:35;;;;;;;7.47;1.13;;;;;;;5.25;100.00;98287.44;5150677;56;1134698;-67
2022/02/21 09:50:36;;;;;;;1.50;0.57;;;;;;;5.38;100.00;98311.56;5149491;56;1134696;-67
2022/02/21 09:55:44;;;;;;;4.20;1.27;;;;;;;5.46;100.00;98320.05;5150054;56;1134562;-69
2022/02/21 10:00:50;;;;;;;6.30;1.30;;;;;;;5.61;100.00;98324.70;5150183;56;1134466;-69
2022/02/21 10:05:56;;;;;;;5.20;0.80;;;;;;;5.88;100.00;98333.16;5104550;56;1134998;-68
2022/02/21 10:11:02;;;;;;;1.47;0.95;;;;;;;6.00;99.39;98337.73;5079013;56;1134659;-71
2022/02/21 10:16:07;;;;;;;4.30;1.07;;;;;;;5.98;96.08;98346.23;5113105;56;1132761;-68
2022/02/21 10:21:13;;;;;;;2.85;1.60;;;;;;;5.88;95.85;98350.66;5106048;56;1132619;-70
2022/02/21 10:26:20;;;;;;;0.90;0.80;;;;;;;5.92;97.85;98364.70;5120298;56;1132546;-70
2022/02/21 10:31:26;;;;;;;8.83;1.83;;;;;;;6.22;94.86;98349.68;5119875;56;1132641;-69
2022/02/21 10:36:39;;;;;;;10.75;1.52;;;;;;;6.57;92.37;98350.28;5116736;56;1132493;-70
2022/02/21 10:41:54;;;;;;;3.72;1.20;;;;;;;6.48;89.64;98372.97;5120247;56;1134637;-68
2022/02/21 10:47:10;;;;;;;14.03;2.20;;;;;;;6.04;91.13;98365.34;5120996;56;1132618;-67
2022/02/21 10:52:27;;;;;;;2.00;1.20;;;;;;;5.82;91.49;98380.06;5113626;56;1134690;-70
2022/02/21 10:57:45;;;;;;;6.63;2.03;;;;;;;5.80;90.43;98404.33;5115670;56;1132772;-68
2022/02/21 11:02:52;;;;;;;3.43;1.93;;;;;;;5.94;91.53;98399.50;5046694;57;1132894;-68
2022/02/21 11:07:58;;;;;;;9.50;1.97;;;;;;;6.21;89.91;98411.02;5048578;57;1132720;-68
2022/02/21 11:13:05;;;;;;;1.53;0.90;;;;;;;6.27;87.38;98427.00;5055803;57;1132771;-69
2022/02/21 11:18:17;;;;;;;2.97;1.20;;;;;;;6.24;85.21;98423.86;4975231;58;1132644;-68
2022/02/21 11:23:22;;;;;;;1.67;1.10;;;;;;;6.32;84.69;98410.34;5016446;57;1132789;-68
2022/02/21 11:29:00;;;;;;;2.23;1.00;;;;;;;6.45;81.91;98428.40;4981545;57;1132814;-69
2022/02/21 11:34:11;;;;;;;3.50;1.20;;;;;;;6.46;82.51;98428.73;4974609;56;1132806;-67
2022/02/21 11:39:28;;;;;;;7.50;1.87;;;;;;;6.66;82.59;98435.58;4973890;57;1132754;-67
2022/02/21 11:44:50;;;;;;;6.73;1.93;;;;;;;6.79;83.40;98447.06;4981517;56;1132517;-68
2022/02/21 11:49:57;;;;;;;9.90;2.53;;;;;;;6.79;82.18;98448.38;4981498;57;1132649;-69
2022/02/21 11:55:06;;;;;;;5.77;1.77;;;;;;;6.59;83.37;98455.50;4981322;57;1132550;-68
2022/02/21 12:00:44;;;;;;;7.87;1.23;;;;;;;6.54;85.39;98447.25;4984056;57;1132485;-68
2022/02/21 12:06:02;;;;;;;10.05;2.80;;;;;;;6.43;83.32;98447.89;5050820;57;1132632;-68
2022/02/21 12:11:17;;;;;;;6.67;2.00;;;;;;;6.57;85.08;98452.70;5037410;57;1134622;-68
2022/02/21 12:16:23;;;;;;;8.43;0.73;;;;;;;6.65;78.68;98474.64;4970554;58;1132586;-69
2022/02/21 12:21:30;;;;;;;4.85;1.47;;;;;;;6.64;77.83;98491.84;4968774;58;1132590;-69
2022/02/21 12:26:41;;;;;;;1.27;0.60;;;;;;;6.59;77.38;98492.27;4901279;58;1133099;-69
2022/02/21 12:32:02;;;;;;;4.28;1.05;;;;;;;6.49;75.77;98500.67;4980502;57;1132825;-69
2022/02/21 12:37:11;;;;;;;3.67;1.20;;;;;;;6.23;72.21;98517.53;5084911;56;1132900;-67
2022/02/21 12:42:19;;;;;;;1.60;0.90;;;;;;;5.72;86.47;98575.97;5147730;56;1132615;-69
2022/02/21 12:47:25;;;;;;;4.97;1.37;;;;;;;4.93;96.25;98556.22;5149905;56;1132702;-66
2022/02/21 12:52:31;;;;;;;7.43;1.10;;;;;;;4.74;100.00;98542.55;5138870;56;1132471;-68
2022/02/21 12:57:41;;;;;;;4.80;1.37;;;;;;;5.03;100.00;98549.72;5149835;56;1138788;-69
2022/02/21 13:02:46;;;;;;;3.37;1.40;;;;;;;5.48;100.00;98552.27;5095279;56;1134867;-67
2022/02/21 13:07:54;;;;;;;8.47;1.27;;;;;;;5.87;95.72;98554.45;5140838;55;1134878;-68
2022/02/21 13:13:03;;;;;;;6.47;1.60;;;;;;;5.92;92.88;98554.91;5147787;56;1132871;-68
2022/02/21 13:18:09;;;;;;;3.60;0.87;;;;;;;6.18;89.29;98544.67;5146322;56;1132682;-70
2022/02/21 13:23:15;;;;;;;5.87;1.63;;;;;;;6.51;81.64;98544.69;5143417;55;1132587;-68
2022/02/21 13:28:21;;;;;;;8.47;1.73;;;;;;;6.70;75.22;98542.03;5125668;56;1169429;-67
2022/02/21 13:33:27;;;;;;;2.63;0.83;;;;;;;6.86;73.37;98543.22;5054416;56;1132980;-69
2022/02/21 13:38:35;;;;;;;3.98;0.80;;;;;;;6.99;71.20;98545.86;5069970;56;1132912;-70
2022/02/21 13:43:41;;;;;;;3.20;1.27;;;;;;;6.99;70.83;98527.47;5065240;56;1132690;-70
2022/02/21 13:48:49;;;;;;;3.00;0.98;;;;;;;6.84;72.14;98539.91;5063895;56;1132622;-68
2022/02/21 13:53:55;;;;;;;7.47;2.20;;;;;;;6.54;70.45;98543.11;5058017;57;1132698;-70
2022/02/21 13:59:08;;;;;;;6.50;1.60;;;;;;;6.41;72.99;98557.02;5102088;56;1132643;-68
2022/02/21 14:04:16;;;;;;;10.17;2.17;;;;;;;6.32;72.95;98559.16;5149559;55;1132629;-69
2022/02/21 14:09:24;;;;;;;13.20;4.47;;;;;;;6.23;72.85;98560.01;5146951;56;1134742;-68
2022/02/21 14:14:31;;;;;;;3.63;0.83;;;;;;;6.18;73.41;98563.04;5056322;57;1134834;-69
2022/02/21 14:19:37;;;;;;;4.10;1.12;;;;;;;6.13;70.02;98556.06;5053782;57;1132919;-67
2022/02/21 14:24:43;;;;;;;4.17;1.10;;;;;;;6.10;70.23;98581.78;5105281;56;1132737;-70
2022/02/21 14:29:48;;;;;;;3.83;1.20;;;;;;;6.06;68.37;98568.58;5103363;56;1132795;-70
2022/02/21 14:34:54;;;;;;;2.97;1.20;;;;;;;6.02;68.27;98558.83;5054955;56;1132559;-69
2022/02/21 14:40:00;;;;;;;5.50;3.47;;;;;;;6.04;69.88;98567.88;5046964;56;1132652;-69
2022/02/21 14:45:08;;;;;;;252.20;114.23;;;;;;;6.03;68.60;98566.22;5052749;56;1132541;-70
2022/02/21 14:50:13;;;;;;;44.37;24.07;;;;;;;6.01;70.29;98559.80;5052046;56;1140839;-70
2022/02/21 14:55:19;;;;;;;14.07;6.53;;;;;;;6.00;70.04;98581.75;5052622;56;1136708;-68
2022/02/21 15:00:26;;;;;;;44.40;31.57;;;;;;;5.96;71.21;98581.19;5016509;56;1134563;-70
2022/02/21 15:05:32;;;;;;;2.10;1.50;;;;;;;5.95;72.07;98577.42;5032278;57;1136723;-67
2022/02/21 15:10:39;;;;;;;8.10;2.50;;;;;;;5.89;71.22;98568.30;5052963;57;1132566;-68
2022/02/21 15:15:48;;;;;;;8.73;2.47;;;;;;;5.88;72.46;98577.13;5052317;57;1132456;-69
2022/02/21 15:20:54;;;;;;;2.87;1.07;;;;;;;5.83;74.25;98577.98;5050948;57;1132623;-70
2022/02/21 15:25:59;;;;;;;6.90;1.87;;;;;;;5.77;77.56;98575.92;5043795;57;1132706;-69
2022/02/21 15:31:05;;;;;;;6.07;2.00;;;;;;;5.70;79.08;98568.23;5042838;57;1132510;-67
2022/02/21 15:36:11;;;;;;;7.63;1.77;;;;;;;5.63;78.79;98571.06;5043144;57;1132615;-69
2022/02/21 15:41:18;;;;;;;11.87;4.83;;;;;;;5.52;76.75;98569.37;5044222;57;1132651;-69
2022/02/21 15:46:26;;;;;;;49.40;16.73;;;;;;;5.52;76.75;98569.37;5052378;57;1134503;-67
2022/02/21 15:51:31;;;;;;;10.00;4.75;;;;;;;5.55;76.26;98580.91;5050701;57;1136605;-68
2022/02/21 15:56:38;;;;;;;7.53;2.55;;;;;;;5.53;75.97;98585.45;5051563;57;1134533;-69
2022/02/21 16:01:44;;;;;;;40.33;12.90;;;;;;;5.51;76.77;98596.55;5052011;57;1132669;-68
2022/02/21 16:06:50;;;;;;;8.30;3.80;;;;;;;5.46;77.67;98588.76;5051264;56;1136814;-68
2022/02/21 16:11:56;;;;;;;20.27;4.45;;;;;;;5.44;78.08;98599.85;5049284;56;1132683;-69
2022/02/21 16:17:01;;;;;;;8.30;4.20;;;;;;;5.39;78.22;98607.28;5052793;57;1134511;-69
2022/02/21 16:22:07;;;;;;;12.00;3.53;;;;;;;5.38;78.49;98622.66;5053151;56;1132426;-70
2022/02/21 16:27:13;;;;;;;26.30;11.27;;;;;;;5.36;77.84;98607.54;5052891;56;1134712;-68
2022/02/21 16:32:22;;;;;;;17.33;4.83;;;;;;;5.35;78.62;98621.64;5051791;56;1137142;-71
2022/02/21 16:37:26;;;;;;;10.72;3.25;;;;;;;5.32;78.41;98608.31;5032306;57;1134730;-69
2022/02/21 16:42:32;;;;;;;15.87;6.07;;;;;;;5.29;79.03;98622.98;5033060;56;1134728;-71
2022/02/21 16:47:41;;;;;;;6.60;2.93;;;;;;;5.29;79.29;98628.22;5024391;57;1134832;-67
2022/02/21 16:52:50;;;;;;;8.60;3.80;;;;;;;5.25;79.43;98605.38;5023872;57;1132722;-70
2022/02/21 16:57:54;;;;;;;8.50;2.15;;;;;;;5.24;79.05;98630.41;5022897;56;1132750;-70
2022/02/21 17:03:00;;;;;;;8.83;2.43;;;;;;;5.22;78.86;98626.59;5037427;56;1132885;-70
2022/02/21 17:08:07;;;;;;;66.70;15.13;;;;;;;5.21;78.84;98619.69;5076578;56;1132551;-71
2022/02/21 17:13:12;;;;;;;80.77;35.17;;;;;;;5.20;79.26;98648.17;5036781;56;1136903;-71
2022/02/21 17:18:19;;;;;;;76.63;24.60;;;;;;;5.16;79.74;98642.03;5032546;57;1136842;-70
2022/02/21 17:23:26;;;;;;;51.47;17.57;;;;;;;5.13;79.97;98645.73;5032836;57;1136770;-70
2022/02/21 17:28:32;;;;;;;90.67;31.33;;;;;;;5.09;80.01;98645.64;5033245;56;1136776;-68
2022/02/21 17:33:38;;;;;;;81.50;27.42;;;;;;;5.06;80.44;98641.13;5043158;56;1137010;-70
2022/02/21 17:38:44;;;;;;;85.40;32.53;;;;;;;5.02;81.10;98642.38;5116209;56;1137481;-69
2022/02/21 17:43:49;;;;;;;23.25;9.40;;;;;;;4.98;81.38;98642.28;5120915;56;1137011;-69
2022/02/21 17:48:55;;;;;;;26.97;10.20;;;;;;;4.91;81.54;98644.09;5121628;56;1134742;-70
2022/02/21 17:54:01;;;;;;;77.93;39.97;;;;;;;4.89;82.09;98646.48;5117721;56;1137151;-71
2022/02/21 17:59:07;;;;;;;63.37;28.80;;;;;;;4.88;82.41;98648.78;5118591;56;1136979;-69
2022/02/21 18:04:13;;;;;;;33.35;8.90;;;;;;;4.88;82.95;98644.86;5121886;56;1136705;-67
2022/02/21 18:09:19;;;;;;;19.03;5.97;;;;;;;4.85;83.27;98647.25;5122467;56;1134639;-70
2022/02/21 18:14:25;;;;;;;13.73;3.90;;;;;;;4.82;83.82;98656.66;5111739;56;1134724;-68
2022/02/21 18:19:31;;;;;;;14.13;4.15;;;;;;;4.80;84.73;98655.12;5111861;56;1134606;-70
2022/02/21 18:24:40;;;;;;;13.10;4.63;;;;;;;4.78;85.58;98656.56;5112496;56;1134521;-69
2022/02/21 18:29:46;;;;;;;9.45;2.30;;;;;;;4.76;86.33;98655.02;5110879;56;1134672;-69
2022/02/21 18:34:51;;;;;;;28.40;7.80;;;;;;;4.73;87.26;98654.83;5109912;56;1132723;-68
2022/02/21 18:39:57;;;;;;;45.90;11.27;;;;;;;4.68;88.29;98664.84;5134482;56;1134716;-70
2022/02/21 18:45:04;;;;;;;9.67;3.37;;;;;;;4.69;88.71;98648.66;5130479;56;1252288;-69
2022/02/21 18:50:10;;;;;;;16.00;4.03;;;;;;;4.65;89.27;98646.77;5092392;56;1132559;-68
2022/02/21 18:55:17;;;;;;;7.93;2.07;;;;;;;4.66;89.74;98651.52;5120928;56;1134840;-69
2022/02/21 19:00:23;;;;;;;8.30;2.60;;;;;;;4.62;89.77;98649.63;5070136;56;1132455;-69
2022/02/21 19:05:29;;;;;;;18.63;6.97;;;;;;;4.60;90.35;98648.92;5045307;56;1132681;-70
2022/02/21 19:10:38;;;;;;;11.53;3.83;;;;;;;4.59;90.83;98653.33;5043763;56;1134746;-69
2022/02/21 19:15:44;;;;;;;15.88;6.50;;;;;;;4.54;91.31;98648.14;5121731;56;1134694;-67
2022/02/21 19:20:50;;;;;;;11.78;4.66;;;;;;;4.53;91.89;98649.09;5129899;56;1134839;-69
2022/02/21 19:25:59;;;;;;;13.40;5.77;;;;;;;4.43;92.70;98652.92;5138552;56;1134775;-68
2022/02/21 19:31:05;;;;;;;7.40;2.53;;;;;;;4.39;93.72;98657.25;5143087;56;1134820;-70
2022/02/21 19:36:15;;;;;;;13.40;3.63;;;;;;;4.33;94.40;98656.43;5143466;56;1132612;-70
2022/02/21 19:41:19;;;;;;;11.73;3.77;;;;;;;4.30;95.10;98658.81;5090810;56;1134458;-70
2022/02/21 19:46:25;;;;;;;8.40;2.40;;;;;;;4.24;95.92;98669.80;5087867;56;1134421;-70
2022/02/21 19:51:30;;;;;;;23.37;9.47;;;;;;;4.21;97.29;98675.27;5105162;56;1132512;-68
2022/02/21 19:56:36;;;;;;;21.70;6.73;;;;;;;4.20;97.37;98669.69;5117414;56;1134987;-70
2022/02/21 20:01:42;;;;;;;17.27;4.60;;;;;;;4.20;97.74;98671.83;5108951;56;1134672;-69
2022/02/21 20:06:48;;;;;;;12.03;3.33;;;;;;;4.22;97.54;98665.16;5078237;56;1144264;-71
2022/02/21 20:11:54;;;;;;;25.90;7.17;;;;;;;4.19;98.12;98657.56;5081677;56;1134719;-69
2022/02/21 20:17:00;;;;;;;9.37;2.30;;;;;;;4.23;97.95;98671.58;5086374;56;1134666;-70
2022/02/21 20:22:09;;;;;;;66.17;22.27;;;;;;;4.22;97.69;98663.38;5079773;56;1132641;-69
2022/02/21 20:27:13;;;;;;;9.57;3.43;;;;;;;4.30;97.40;98668.45;5076185;56;1137219;-70
2022/02/21 20:32:19;;;;;;;13.33;3.53;;;;;;;4.31;97.21;98656.55;5091011;56;1132607;-67
2022/02/21 20:37:25;;;;;;;12.83;3.50;;;;;;;4.32;97.08;98663.92;5087737;56;1134788;-69
2022/02/21 20:42:31;;;;;;;7.90;2.20;;;;;;;4.29;97.25;98666.78;5112359;56;1134733;-69
2022/02/21 20:47:43;;;;;;;10.43;1.97;;;;;;;4.32;97.44;98672.61;5089986;56;1132750;-68
2022/02/21 20:52:46;;;;;;;12.03;2.30;;;;;;;4.33;98.26;98685.22;5057007;57;1134715;-70
2022/02/21 20:57:52;;;;;;;3.60;1.67;;;;;;;4.34;98.94;98676.41;5056856;57;1134649;-67
2022/02/21 21:02:58;;;;;;;4.70;1.27;;;;;;;4.37;99.71;98693.18;5079644;56;1132553;-71
2022/02/21 21:08:04;;;;;;;6.27;2.27;;;;;;;4.36;100.00;98698.06;5141803;56;1132398;-75
2022/02/21 21:13:09;;;;;;;3.60;1.80;;;;;;;4.36;100.00;98707.22;5141890;56;1134691;-74
2022/02/21 21:18:15;;;;;;;6.62;2.40;;;;;;;4.33;100.00;98718.77;5141689;56;1134708;-72
2022/02/21 21:23:22;;;;;;;3.45;1.55;;;;;;;4.28;100.00;98712.25;5141350;56;1134606;-74
2022/02/21 21:28:28;;;;;;;12.20;4.43;;;;;;;4.21;100.00;98717.97;5142136;56;1134667;-74
2022/02/21 21:33:34;;;;;;;4.47;1.47;;;;;;;4.18;100.00;98719.52;5141691;56;1136688;-74
2022/02/21 21:38:40;;;;;;;4.90;1.30;;;;;;;4.12;100.00;98742.73;5142562;56;1134620;-75
2022/02/21 21:43:45;;;;;;;2.43;1.10;;;;;;;4.06;100.00;98744.05;5100666;56;1135011;-75
2022/02/21 21:48:51;;;;;;;7.70;1.30;;;;;;;3.98;100.00;98747.72;5087597;56;1135033;-73
2022/02/21 21:53:57;;;;;;;0.83;0.83;;;;;;;3.94;100.00;98759.88;5087248;56;1134794;-74
2022/02/21 21:59:03;;;;;;;1.25;0.90;;;;;;;3.88;100.00;98760.70;5077917;56;1134956;-73
2022/02/21 22:04:09;;;;;;;2.20;1.20;;;;;;;3.84;100.00;98784.11;5049706;56;1134791;-75
2022/02/21 22:09:14;;;;;;;4.00;1.53;;;;;;;3.81;100.00;98812.30;5022401;57;1134949;-75
2022/02/21 22:14:20;;;;;;;4.23;1.03;;;;;;;3.76;100.00;98817.88;5023904;57;1134903;-73
2022/02/21 22:19:26;;;;;;;1.63;1.13;;;;;;;3.74;100.00;98826.78;5024248;57;1135065;-73
2022/02/21 22:24:32;;;;;;;1.97;0.93;;;;;;;3.71;100.00;98837.00;5024262;57;1134711;-73
2022/02/21 22:29:37;;;;;;;5.35;1.10;;;;;;;3.69;100.00;98858.97;5023728;57;1134677;-74
2022/02/21 22:34:44;;;;;;;5.85;1.30;;;;;;;3.64;100.00;98861.96;5005874;57;1134881;-75
2022/02/21 22:39:50;;;;;;;2.00;1.00;;;;;;;3.59;100.00;98874.53;4863175;59;1134997;-75
2022/02/21 22:44:56;;;;;;;1.07;0.70;;;;;;;3.57;100.00;98872.98;4886962;59;1134819;-74
2022/02/21 22:50:02;;;;;;;3.40;1.20;;;;;;;3.54;100.00;98883.18;4895831;59;1135013;-73
2022/02/21 22:55:09;;;;;;;2.73;0.90;;;;;;;3.51;100.00;98874.29;4895626;59;1134754;-73
2022/02/21 23:00:43;;;;;;;6.43;2.33;;;;;;;3.47;100.00;98885.91;4895720;59;1134838;-74
2022/02/21 23:05:49;;;;;;;1.02;0.74;;;;;;;3.44;100.00;98898.73;4937651;58;1134816;-76
2022/02/21 23:11:00;;;;;;;1.65;0.82;;;;;;;3.42;100.00;98909.77;4975302;58;1135202;-75
2022/02/21 23:16:02;;;;;;;0.80;0.80;;;;;;;3.39;100.00;98906.06;4975363;58;1135158;-75
2022/02/21 23:21:08;;;;;;;1.90;1.13;;;;;;;3.42;100.00;98903.23;4975256;58;1134714;-73
2022/02/21 23:26:14;;;;;;;1.87;0.90;;;;;;;3.44;100.00;98909.66;4975288;58;1134886;-73
2022/02/21 23:31:20;;;;;;;2.00;1.40;;;;;;;3.44;100.00;98917.49;4974995;57;1135040;-75
2022/02/21 23:36:25;;;;;;;1.67;1.40;;;;;;;3.43;100.00;98906.67;4972780;58;1134606;-74